sensor_id;sensor_type;location;lat;lon;timestamp;pressure;altitude;pressure_sealevel;temperature;humidity
54329;BME280;40710;51.120;13.136;2023-10-19T00:00:31;98150.25;;;8.77;62.61
54329;BME280;40710;51.120;13.136;2023-10-19T00:02:58;98147.53;;;8.51;63.14
54329;BME280;40710;51.120;13.136;2023-10-19T00:05:22;98133.03;;;9.13;61.94
54329;BME280;40710;51.120;13.136;2023-10-19T00:07:50;98134.09;;;8.70;62.70
54329;BME280;40710;51.120;13.136;2023-10-19T00:10:17;98140.19;;;8.15;65.57
54329;BME280;40710;51.120;13.136;2023-10-19T00:12:42;98136.50;;;8.74;63.92
54329;BME280;40710;51.120;13.136;2023-10-19T00:15:08;98132.25;;;8.17;64.83
54329;BME280;40710;51.120;13.136;2023-10-19T00:17:34;98121.81;;;8.71;64.29
54329;BME280;40710;51.120;13.136;2023-10-19T00:19:58;98117.53;;;8.70;63.96
54329;BME280;40710;51.120;13.136;2023-10-19T00:22:46;98116.72;;;8.42;64.89
54329;BME280;40710;51.120;13.136;2023-10-19T00:25:12;98115.59;;;8.86;63.90
54329;BME280;40710;51.120;13.136;2023-10-19T00:27:37;98107.25;;;9.20;62.35
54329;BME280;40710;51.120;13.136;2023-10-19T00:30:02;98109.72;;;8.96;63.24
54329;BME280;40710;51.120;13.136;2023-10-19T00:32:35;98096.97;;;9.04;62.69
54329;BME280;40710;51.120;13.136;2023-10-19T00:35:03;98094.25;;;9.18;62.47
54329;BME280;40710;51.120;13.136;2023-10-19T00:37:32;98095.34;;;8.48;63.92
54329;BME280;40710;51.120;13.136;2023-10-19T00:40:00;98086.78;;;8.99;63.80
54329;BME280;40710;51.120;13.136;2023-10-19T00:42:39;98071.72;;;9.03;63.01
54329;BME280;40710;51.120;13.136;2023-10-19T00:45:10;98066.34;;;9.04;62.76
54329;BME280;40710;51.120;13.136;2023-10-19T00:47:37;98075.22;;;8.22;65.31
54329;BME280;40710;51.120;13.136;2023-10-19T00:50:05;98069.06;;;8.50;65.41
54329;BME280;40710;51.120;13.136;2023-10-19T00:52:29;98055.66;;;8.82;64.25
54329;BME280;40710;51.120;13.136;2023-10-19T00:54:56;98038.88;;;9.49;62.30
54329;BME280;40710;51.120;13.136;2023-10-19T00:57:23;98033.22;;;9.42;62.57
54329;BME280;40710;51.120;13.136;2023-10-19T00:59:58;98027.25;;;9.40;62.95
54329;BME280;40710;51.120;13.136;2023-10-19T01:02:46;98028.81;;;9.30;62.81
54329;BME280;40710;51.120;13.136;2023-10-19T01:05:10;98022.28;;;9.48;62.30
54329;BME280;40710;51.120;13.136;2023-10-19T01:07:37;98034.66;;;9.46;62.17
54329;BME280;40710;51.120;13.136;2023-10-19T01:10:03;98026.50;;;9.25;62.49
54329;BME280;40710;51.120;13.136;2023-10-19T01:12:30;98015.03;;;9.64;61.92
54329;BME280;40710;51.120;13.136;2023-10-19T01:15:13;98011.75;;;8.98;63.57
54329;BME280;40710;51.120;13.136;2023-10-19T01:17:47;98028.25;;;8.60;65.29
54329;BME280;40710;51.120;13.136;2023-10-19T01:20:30;98008.94;;;9.01;64.53
54329;BME280;40710;51.120;13.136;2023-10-19T01:23:00;97997.81;;;9.60;62.69
54329;BME280;40710;51.120;13.136;2023-10-19T01:25:31;98002.78;;;9.52;62.94
54329;BME280;40710;51.120;13.136;2023-10-19T01:27:59;97998.94;;;9.69;62.71
54329;BME280;40710;51.120;13.136;2023-10-19T01:30:23;97997.50;;;9.65;62.56
54329;BME280;40710;51.120;13.136;2023-10-19T01:32:48;98004.31;;;9.92;61.98
54329;BME280;40710;51.120;13.136;2023-10-19T01:35:13;98005.91;;;9.94;61.28
54329;BME280;40710;51.120;13.136;2023-10-19T01:37:37;98003.94;;;9.85;62.02
54329;BME280;40710;51.120;13.136;2023-10-19T01:40:02;97999.28;;;9.64;61.68
54329;BME280;40710;51.120;13.136;2023-10-19T01:42:28;97995.63;;;9.91;61.41
54329;BME280;40710;51.120;13.136;2023-10-19T01:44:55;97993.28;;;9.75;61.74
54329;BME280;40710;51.120;13.136;2023-10-19T01:47:19;97997.16;;;9.20;64.16
54329;BME280;40710;51.120;13.136;2023-10-19T01:49:45;97992.72;;;9.83;62.77
54329;BME280;40710;51.120;13.136;2023-10-19T01:52:16;97982.22;;;10.07;62.03
54329;BME280;40710;51.120;13.136;2023-10-19T01:54:41;97976.78;;;9.49;63.72
54329;BME280;40710;51.120;13.136;2023-10-19T01:57:06;97984.19;;;9.05;65.12
54329;BME280;40710;51.120;13.136;2023-10-19T01:59:32;97976.19;;;9.33;64.64
54329;BME280;40710;51.120;13.136;2023-10-19T02:01:58;97971.09;;;8.93;65.60
54329;BME280;40710;51.120;13.136;2023-10-19T02:04:24;97955.06;;;9.47;63.90
54329;BME280;40710;51.120;13.136;2023-10-19T02:06:50;97942.34;;;9.78;62.12
54329;BME280;40710;51.120;13.136;2023-10-19T02:09:18;97934.94;;;9.96;61.93
54329;BME280;40710;51.120;13.136;2023-10-19T02:11:50;97920.81;;;10.21;60.77
54329;BME280;40710;51.120;13.136;2023-10-19T02:14:17;97913.88;;;9.84;61.38
54329;BME280;40710;51.120;13.136;2023-10-19T02:16:47;97910.66;;;10.16;61.73
54329;BME280;40710;51.120;13.136;2023-10-19T02:19:15;97909.44;;;10.45;60.48
54329;BME280;40710;51.120;13.136;2023-10-19T02:21:39;97914.97;;;10.17;61.26
54329;BME280;40710;51.120;13.136;2023-10-19T02:24:08;97904.06;;;10.35;61.51
54329;BME280;40710;51.120;13.136;2023-10-19T02:26:34;97907.09;;;9.82;62.03
54329;BME280;40710;51.120;13.136;2023-10-19T02:29:01;97885.72;;;10.57;59.55
54329;BME280;40710;51.120;13.136;2023-10-19T02:31:31;97886.94;;;10.65;59.24
54329;BME280;40710;51.120;13.136;2023-10-19T02:33:56;97870.88;;;11.13;58.61
54329;BME280;40710;51.120;13.136;2023-10-19T02:36:23;97871.72;;;10.34;59.10
54329;BME280;40710;51.120;13.136;2023-10-19T02:38:48;97874.63;;;9.83;60.67
54329;BME280;40710;51.120;13.136;2023-10-19T02:41:13;97874.13;;;10.02;60.42
54329;BME280;40710;51.120;13.136;2023-10-19T02:43:37;97850.03;;;10.89;58.22
54329;BME280;40710;51.120;13.136;2023-10-19T02:46:02;97857.19;;;10.64;59.76
54329;BME280;40710;51.120;13.136;2023-10-19T02:48:28;97866.75;;;10.88;59.46
54329;BME280;40710;51.120;13.136;2023-10-19T02:50:52;97857.16;;;11.21;58.09
54329;BME280;40710;51.120;13.136;2023-10-19T02:53:17;97857.84;;;11.11;59.19
54329;BME280;40710;51.120;13.136;2023-10-19T02:55:43;97857.16;;;11.21;58.16
54329;BME280;40710;51.120;13.136;2023-10-19T02:58:08;97852.75;;;11.10;59.54
54329;BME280;40710;51.120;13.136;2023-10-19T03:00:32;97847.88;;;10.83;59.47
54329;BME280;40710;51.120;13.136;2023-10-19T03:02:59;97846.91;;;10.84;60.53
54329;BME280;40710;51.120;13.136;2023-10-19T03:05:24;97844.34;;;11.27;59.34
54329;BME280;40710;51.120;13.136;2023-10-19T03:07:50;97843.66;;;11.58;58.61
54329;BME280;40710;51.120;13.136;2023-10-19T03:10:16;97854.47;;;11.76;58.56
54329;BME280;40710;51.120;13.136;2023-10-19T03:12:49;97836.63;;;11.47;59.27
54329;BME280;40710;51.120;13.136;2023-10-19T03:15:14;97836.47;;;11.60;59.61
54329;BME280;40710;51.120;13.136;2023-10-19T03:17:39;97826.16;;;11.68;59.67
54329;BME280;40710;51.120;13.136;2023-10-19T03:20:04;97853.94;;;10.38;64.14
54329;BME280;40710;51.120;13.136;2023-10-19T03:22:30;97856.81;;;10.35;64.35
54329;BME280;40710;51.120;13.136;2023-10-19T03:24:56;97843.56;;;10.93;63.84
54329;BME280;40710;51.120;13.136;2023-10-19T03:27:38;97839.97;;;11.05;63.67
54329;BME280;40710;51.120;13.136;2023-10-19T03:30:03;97837.50;;;11.36;64.11
54329;BME280;40710;51.120;13.136;2023-10-19T03:32:29;97842.59;;;10.60;64.99
54329;BME280;40710;51.120;13.136;2023-10-19T03:34:56;97831.50;;;10.56;65.39
54329;BME280;40710;51.120;13.136;2023-10-19T03:37:26;97835.91;;;10.90;65.94
54329;BME280;40710;51.120;13.136;2023-10-19T03:39:53;97836.28;;;10.85;65.46
54329;BME280;40710;51.120;13.136;2023-10-19T03:42:20;97828.72;;;11.03;64.29
54329;BME280;40710;51.120;13.136;2023-10-19T03:44:45;97830.84;;;11.21;64.85
54329;BME280;40710;51.120;13.136;2023-10-19T03:47:12;97827.31;;;10.43;66.24
54329;BME280;40710;51.120;13.136;2023-10-19T03:49:39;97832.22;;;10.47;67.19
54329;BME280;40710;51.120;13.136;2023-10-19T03:52:07;97822.44;;;10.38;67.06
54329;BME280;40710;51.120;13.136;2023-10-19T03:54:35;97807.91;;;11.23;65.52
54329;BME280;40710;51.120;13.136;2023-10-19T03:57:07;97807.50;;;10.61;66.60
54329;BME280;40710;51.120;13.136;2023-10-19T03:59:36;97799.59;;;10.95;65.81
54329;BME280;40710;51.120;13.136;2023-10-19T04:02:02;97795.03;;;11.08;66.49
54329;BME280;40710;51.120;13.136;2023-10-19T04:04:33;97798.06;;;10.81;67.40
54329;BME280;40710;51.120;13.136;2023-10-19T04:06:58;97798.09;;;11.25;66.17
54329;BME280;40710;51.120;13.136;2023-10-19T04:09:23;97791.34;;;11.43;65.45
54329;BME280;40710;51.120;13.136;2023-10-19T04:11:47;97775.88;;;11.71;64.43
54329;BME280;40710;51.120;13.136;2023-10-19T04:14:12;97788.19;;;11.17;65.91
54329;BME280;40710;51.120;13.136;2023-10-19T04:16:39;97785.09;;;11.44;66.01
54329;BME280;40710;51.120;13.136;2023-10-19T04:19:07;97783.41;;;11.76;65.39
54329;BME280;40710;51.120;13.136;2023-10-19T04:21:33;97774.34;;;11.89;65.00
54329;BME280;40710;51.120;13.136;2023-10-19T04:23:58;97772.53;;;11.69;66.05
54329;BME280;40710;51.120;13.136;2023-10-19T04:26:23;97781.22;;;10.84;68.43
54329;BME280;40710;51.120;13.136;2023-10-19T04:28:49;97763.09;;;11.45;66.56
54329;BME280;40710;51.120;13.136;2023-10-19T04:31:17;97773.22;;;10.74;69.32
54329;BME280;40710;51.120;13.136;2023-10-19T04:33:43;97771.25;;;10.98;68.56
54329;BME280;40710;51.120;13.136;2023-10-19T04:36:09;97768.34;;;10.58;70.00
54329;BME280;40710;51.120;13.136;2023-10-19T04:38:35;97771.09;;;10.68;70.10
54329;BME280;40710;51.120;13.136;2023-10-19T04:41:05;97740.34;;;11.77;67.00
54329;BME280;40710;51.120;13.136;2023-10-19T04:43:37;97751.16;;;10.54;70.40
54329;BME280;40710;51.120;13.136;2023-10-19T04:46:05;97742.16;;;10.79;70.55
54329;BME280;40710;51.120;13.136;2023-10-19T04:48:32;97751.88;;;10.22;72.28
54329;BME280;40710;51.120;13.136;2023-10-19T04:50:57;97746.34;;;10.02;73.23
54329;BME280;40710;51.120;13.136;2023-10-19T04:53:21;97737.81;;;10.34;73.03
54329;BME280;40710;51.120;13.136;2023-10-19T04:55:46;97742.91;;;10.58;72.26
54329;BME280;40710;51.120;13.136;2023-10-19T04:58:10;97729.91;;;10.23;72.62
54329;BME280;40710;51.120;13.136;2023-10-19T05:00:35;97735.91;;;10.36;73.32
54329;BME280;40710;51.120;13.136;2023-10-19T05:02:59;97723.03;;;10.88;71.39
54329;BME280;40710;51.120;13.136;2023-10-19T05:05:25;97712.44;;;11.11;69.83
54329;BME280;40710;51.120;13.136;2023-10-19T05:07:50;97712.03;;;10.94;70.76
54329;BME280;40710;51.120;13.136;2023-10-19T05:10:15;97710.53;;;11.55;68.86
54329;BME280;40710;51.120;13.136;2023-10-19T05:12:39;97725.63;;;11.00;71.36
54329;BME280;40710;51.120;13.136;2023-10-19T05:15:04;97714.47;;;11.40;70.32
54329;BME280;40710;51.120;13.136;2023-10-19T05:17:30;97701.56;;;11.79;68.67
54329;BME280;40710;51.120;13.136;2023-10-19T05:19:54;97702.91;;;12.25;66.76
54329;BME280;40710;51.120;13.136;2023-10-19T05:22:20;97715.34;;;11.71;68.37
54329;BME280;40710;51.120;13.136;2023-10-19T05:24:45;97708.94;;;11.85;68.02
54329;BME280;40710;51.120;13.136;2023-10-19T05:27:12;97705.09;;;11.89;68.15
54329;BME280;40710;51.120;13.136;2023-10-19T05:29:36;97710.69;;;11.53;70.10
54329;BME280;40710;51.120;13.136;2023-10-19T05:32:01;97706.75;;;11.69;69.67
54329;BME280;40710;51.120;13.136;2023-10-19T05:34:26;97705.44;;;11.53;69.75
54329;BME280;40710;51.120;13.136;2023-10-19T05:36:51;97711.41;;;11.77;69.94
54329;BME280;40710;51.120;13.136;2023-10-19T05:39:16;97708.03;;;11.32;69.81
54329;BME280;40710;51.120;13.136;2023-10-19T05:41:41;97714.25;;;11.10;71.60
54329;BME280;40710;51.120;13.136;2023-10-19T05:44:05;97710.34;;;10.93;71.72
54329;BME280;40710;51.120;13.136;2023-10-19T05:46:30;97714.59;;;10.73;72.75
54329;BME280;40710;51.120;13.136;2023-10-19T05:48:56;97711.78;;;10.43;73.58
54329;BME280;40710;51.120;13.136;2023-10-19T05:51:20;97717.22;;;10.62;73.59
54329;BME280;40710;51.120;13.136;2023-10-19T05:53:46;97707.53;;;10.85;72.82
54329;BME280;40710;51.120;13.136;2023-10-19T05:56:13;97714.28;;;10.44;74.30
54329;BME280;40710;51.120;13.136;2023-10-19T05:58:37;97700.47;;;10.86;72.53
54329;BME280;40710;51.120;13.136;2023-10-19T06:01:02;97715.06;;;11.11;73.00
54329;BME280;40710;51.120;13.136;2023-10-19T06:03:26;97702.41;;;11.37;71.29
54329;BME280;40710;51.120;13.136;2023-10-19T06:05:51;97712.84;;;11.06;72.02
54329;BME280;40710;51.120;13.136;2023-10-19T06:08:19;97704.75;;;10.87;72.50
54329;BME280;40710;51.120;13.136;2023-10-19T06:10:51;97708.69;;;10.92;72.84
54329;BME280;40710;51.120;13.136;2023-10-19T06:13:15;97711.72;;;10.76;73.68
54329;BME280;40710;51.120;13.136;2023-10-19T06:15:40;97711.50;;;11.01;72.62
54329;BME280;40710;51.120;13.136;2023-10-19T06:18:05;97705.69;;;11.29;72.19
54329;BME280;40710;51.120;13.136;2023-10-19T06:20:30;97719.38;;;10.57;73.91
54329;BME280;40710;51.120;13.136;2023-10-19T06:22:56;97714.94;;;10.80;73.58
54329;BME280;40710;51.120;13.136;2023-10-19T06:25:24;97716.41;;;11.05;72.85
54329;BME280;40710;51.120;13.136;2023-10-19T06:27:50;97708.09;;;10.89;73.48
54329;BME280;40710;51.120;13.136;2023-10-19T06:30:16;97712.84;;;11.06;73.02
54329;BME280;40710;51.120;13.136;2023-10-19T06:32:48;97713.53;;;11.08;72.51
54329;BME280;40710;51.120;13.136;2023-10-19T06:35:12;97725.06;;;10.96;73.53
54329;BME280;40710;51.120;13.136;2023-10-19T06:37:37;97723.16;;;11.19;72.71
54329;BME280;40710;51.120;13.136;2023-10-19T06:40:03;97724.41;;;11.04;72.94
54329;BME280;40710;51.120;13.136;2023-10-19T06:42:27;97716.88;;;11.10;72.57
54329;BME280;40710;51.120;13.136;2023-10-19T06:44:52;97716.47;;;10.94;73.46
54329;BME280;40710;51.120;13.136;2023-10-19T06:47:20;97705.56;;;11.73;70.87
54329;BME280;40710;51.120;13.136;2023-10-19T06:49:44;97710.56;;;12.28;69.26
54329;BME280;40710;51.120;13.136;2023-10-19T06:52:09;97715.00;;;12.27;68.71
54329;BME280;40710;51.120;13.136;2023-10-19T06:54:35;97708.19;;;12.25;67.91
54329;BME280;40710;51.120;13.136;2023-10-19T06:57:00;97703.91;;;12.34;68.62
54329;BME280;40710;51.120;13.136;2023-10-19T06:59:27;97711.97;;;11.38;70.70
54329;BME280;40710;51.120;13.136;2023-10-19T07:01:53;97706.16;;;12.07;69.61
54329;BME280;40710;51.120;13.136;2023-10-19T07:04:18;97709.59;;;11.77;70.67
54329;BME280;40710;51.120;13.136;2023-10-19T07:06:42;97710.06;;;12.44;68.59
54329;BME280;40710;51.120;13.136;2023-10-19T07:09:07;97715.09;;;11.74;70.10
54329;BME280;40710;51.120;13.136;2023-10-19T07:11:34;97717.63;;;11.54;71.11
54329;BME280;40710;51.120;13.136;2023-10-19T07:13:59;97724.50;;;10.70;74.12
54329;BME280;40710;51.120;13.136;2023-10-19T07:16:24;97726.50;;;10.89;73.93
54329;BME280;40710;51.120;13.136;2023-10-19T07:18:49;97715.72;;;10.92;74.07
54329;BME280;40710;51.120;13.136;2023-10-19T07:21:14;97713.75;;;11.38;72.69
54329;BME280;40710;51.120;13.136;2023-10-19T07:23:39;97713.06;;;11.03;72.77
54329;BME280;40710;51.120;13.136;2023-10-19T07:26:04;97708.88;;;11.33;72.48
54329;BME280;40710;51.120;13.136;2023-10-19T07:28:30;97717.16;;;10.96;73.85
54329;BME280;40710;51.120;13.136;2023-10-19T07:30:55;97714.97;;;11.54;72.46
54329;BME280;40710;51.120;13.136;2023-10-19T07:33:21;97715.88;;;11.11;72.50
54329;BME280;40710;51.120;13.136;2023-10-19T07:35:47;97711.84;;;11.40;71.39
54329;BME280;40710;51.120;13.136;2023-10-19T07:38:13;97725.81;;;11.08;73.75
54329;BME280;40710;51.120;13.136;2023-10-19T07:40:38;97718.44;;;11.34;73.43
54329;BME280;40710;51.120;13.136;2023-10-19T07:43:02;97701.38;;;11.91;71.34
54329;BME280;40710;51.120;13.136;2023-10-19T07:45:28;97718.69;;;10.98;73.60
54329;BME280;40710;51.120;13.136;2023-10-19T07:47:53;97703.94;;;11.19;72.65
54329;BME280;40710;51.120;13.136;2023-10-19T07:50:18;97709.66;;;11.24;73.22
54329;BME280;40710;51.120;13.136;2023-10-19T07:52:47;97707.22;;;11.32;73.07
54329;BME280;40710;51.120;13.136;2023-10-19T07:55:13;97685.72;;;11.69;71.12
54329;BME280;40710;51.120;13.136;2023-10-19T07:57:38;97690.59;;;11.73;72.41
54329;BME280;40710;51.120;13.136;2023-10-19T08:00:05;97687.44;;;11.38;72.66
54329;BME280;40710;51.120;13.136;2023-10-19T08:02:30;97692.84;;;11.15;73.46
54329;BME280;40710;51.120;13.136;2023-10-19T08:04:55;97680.84;;;11.64;72.72
54329;BME280;40710;51.120;13.136;2023-10-19T08:07:20;97677.31;;;11.96;71.16
54329;BME280;40710;51.120;13.136;2023-10-19T08:09:45;97677.19;;;11.56;72.14
54329;BME280;40710;51.120;13.136;2023-10-19T08:12:09;97682.69;;;11.10;72.68
54329;BME280;40710;51.120;13.136;2023-10-19T08:14:34;97666.03;;;12.25;70.07
54329;BME280;40710;51.120;13.136;2023-10-19T08:16:59;97677.91;;;12.50;69.43
54329;BME280;40710;51.120;13.136;2023-10-19T08:19:23;97659.72;;;12.47;68.38
54329;BME280;40710;51.120;13.136;2023-10-19T08:21:48;97666.34;;;11.91;70.52
54329;BME280;40710;51.120;13.136;2023-10-19T08:24:12;97670.78;;;11.48;72.58
54329;BME280;40710;51.120;13.136;2023-10-19T08:26:42;97663.59;;;12.43;69.56
54329;BME280;40710;51.120;13.136;2023-10-19T08:29:08;97660.25;;;12.31;69.14
54329;BME280;40710;51.120;13.136;2023-10-19T08:31:37;97670.63;;;11.71;70.14
54329;BME280;40710;51.120;13.136;2023-10-19T08:34:01;97672.31;;;11.72;71.73
54329;BME280;40710;51.120;13.136;2023-10-19T08:36:27;97660.63;;;12.17;69.68
54329;BME280;40710;51.120;13.136;2023-10-19T08:38:52;97660.78;;;12.25;69.84
54329;BME280;40710;51.120;13.136;2023-10-19T08:41:18;97659.44;;;12.40;68.90
54329;BME280;40710;51.120;13.136;2023-10-19T08:43:42;97662.81;;;11.60;71.38
54329;BME280;40710;51.120;13.136;2023-10-19T08:46:09;97657.44;;;11.61;72.46
54329;BME280;40710;51.120;13.136;2023-10-19T08:48:35;97641.25;;;11.66;71.84
54329;BME280;40710;51.120;13.136;2023-10-19T08:51:03;97651.50;;;11.69;71.75
54329;BME280;40710;51.120;13.136;2023-10-19T08:53:33;97643.09;;;12.06;70.41
54329;BME280;40710;51.120;13.136;2023-10-19T08:56:04;97639.47;;;12.47;69.68
54329;BME280;40710;51.120;13.136;2023-10-19T08:58:31;97644.97;;;12.15;70.67
54329;BME280;40710;51.120;13.136;2023-10-19T09:00:55;97647.22;;;11.99;71.79
54329;BME280;40710;51.120;13.136;2023-10-19T09:03:20;97644.03;;;11.95;71.93
54329;BME280;40710;51.120;13.136;2023-10-19T09:05:46;97637.00;;;11.96;71.07
54329;BME280;40710;51.120;13.136;2023-10-19T09:08:14;97642.53;;;12.02;71.63
54329;BME280;40710;51.120;13.136;2023-10-19T09:10:39;97630.41;;;12.21;70.59
54329;BME280;40710;51.120;13.136;2023-10-19T09:13:05;97629.13;;;13.04;68.53
54329;BME280;40710;51.120;13.136;2023-10-19T09:15:34;97636.72;;;12.68;69.61
54329;BME280;40710;51.120;13.136;2023-10-19T09:20:39;97613.53;;;13.40;67.34
54329;BME280;40710;51.120;13.136;2023-10-19T09:23:03;97619.13;;;12.79;68.48
54329;BME280;40710;51.120;13.136;2023-10-19T09:25:28;97613.31;;;13.04;69.34
54329;BME280;40710;51.120;13.136;2023-10-19T09:27:53;97610.50;;;13.26;68.44
54329;BME280;40710;51.120;13.136;2023-10-19T09:30:19;97618.13;;;13.19;68.54
54329;BME280;40710;51.120;13.136;2023-10-19T09:32:48;97609.69;;;12.96;69.08
54329;BME280;40710;51.120;13.136;2023-10-19T09:35:17;97611.88;;;13.20;69.02
54329;BME280;40710;51.120;13.136;2023-10-19T09:37:44;97609.66;;;13.35;68.89
54329;BME280;40710;51.120;13.136;2023-10-19T09:40:09;97607.13;;;13.53;68.04
54329;BME280;40710;51.120;13.136;2023-10-19T09:42:39;97608.41;;;13.19;69.42
54329;BME280;40710;51.120;13.136;2023-10-19T09:45:10;97604.59;;;13.61;68.68
54329;BME280;40710;51.120;13.136;2023-10-19T09:47:38;97612.69;;;13.30;68.99
54329;BME280;40710;51.120;13.136;2023-10-19T09:50:05;97595.59;;;13.54;67.28
54329;BME280;40710;51.120;13.136;2023-10-19T09:52:31;97597.66;;;13.60;67.32
54329;BME280;40710;51.120;13.136;2023-10-19T09:55:03;97591.13;;;14.19;65.87
54329;BME280;40710;51.120;13.136;2023-10-19T09:57:49;97579.69;;;14.29;65.35
54329;BME280;40710;51.120;13.136;2023-10-19T10:00:16;97567.94;;;14.41;65.30
54329;BME280;40710;51.120;13.136;2023-10-19T10:02:47;97575.53;;;14.44;64.79
54329;BME280;40710;51.120;13.136;2023-10-19T10:10:41;97596.38;;;12.88;71.19
54329;BME280;40710;51.120;13.136;2023-10-19T10:15:48;97578.81;;;14.10;68.62
54329;BME280;40710;51.120;13.136;2023-10-19T10:18:13;97580.03;;;13.51;69.90
54329;BME280;40710;51.120;13.136;2023-10-19T10:20:40;97586.19;;;13.41;71.04
54329;BME280;40710;51.120;13.136;2023-10-19T10:23:20;97579.09;;;13.79;69.79
54329;BME280;40710;51.120;13.136;2023-10-19T10:25:49;97569.44;;;13.98;69.69
54329;BME280;40710;51.120;13.136;2023-10-19T10:28:15;97561.84;;;13.85;69.23
54329;BME280;40710;51.120;13.136;2023-10-19T10:33:48;97549.19;;;14.52;66.98
54329;BME280;40710;51.120;13.136;2023-10-19T10:36:14;97546.50;;;14.80;66.49
54329;BME280;40710;51.120;13.136;2023-10-19T10:38:40;97552.66;;;14.53;67.94
54329;BME280;40710;51.120;13.136;2023-10-19T10:41:05;97548.25;;;14.08;69.36
54329;BME280;40710;51.120;13.136;2023-10-19T10:43:33;97530.38;;;14.91;67.01
54329;BME280;40710;51.120;13.136;2023-10-19T10:46:07;97537.84;;;14.24;69.03
54329;BME280;40710;51.120;13.136;2023-10-19T10:48:32;97519.28;;;15.14;65.88
54329;BME280;40710;51.120;13.136;2023-10-19T10:50:56;97525.75;;;14.22;69.11
54329;BME280;40710;51.120;13.136;2023-10-19T10:53:23;97524.56;;;14.88;67.74
54329;BME280;40710;51.120;13.136;2023-10-19T10:55:51;97520.53;;;15.28;66.52
54329;BME280;40710;51.120;13.136;2023-10-19T10:58:16;97516.38;;;14.99;66.84
54329;BME280;40710;51.120;13.136;2023-10-19T11:00:45;97518.53;;;15.22;67.04
54329;BME280;40710;51.120;13.136;2023-10-19T11:03:15;97516.25;;;14.83;68.35
54329;BME280;40710;51.120;13.136;2023-10-19T11:05:40;97514.34;;;15.45;66.42
54329;BME280;40710;51.120;13.136;2023-10-19T11:08:08;97506.72;;;14.90;68.20
54329;BME280;40710;51.120;13.136;2023-10-19T11:10:46;97495.19;;;15.94;65.19
54329;BME280;40710;51.120;13.136;2023-10-19T11:13:13;97506.72;;;15.16;67.23
54329;BME280;40710;51.120;13.136;2023-10-19T11:15:39;97500.38;;;16.12;65.47
54329;BME280;40710;51.120;13.136;2023-10-19T11:18:11;97473.25;;;16.68;63.61
54329;BME280;40710;51.120;13.136;2023-10-19T11:20:56;97486.75;;;15.91;65.63
54329;BME280;40710;51.120;13.136;2023-10-19T11:23:47;97479.22;;;16.53;63.50
54329;BME280;40710;51.120;13.136;2023-10-19T11:26:22;97482.53;;;16.55;63.63
54329;BME280;40710;51.120;13.136;2023-10-19T11:28:57;97490.00;;;16.93;63.51
54329;BME280;40710;51.120;13.136;2023-10-19T11:31:23;97496.72;;;16.05;65.32
54329;BME280;40710;51.120;13.136;2023-10-19T11:33:48;97495.47;;;15.83;66.30
54329;BME280;40710;51.120;13.136;2023-10-19T11:36:15;97498.06;;;16.17;65.90
54329;BME280;40710;51.120;13.136;2023-10-19T11:38:42;97478.41;;;16.86;63.90
54329;BME280;40710;51.120;13.136;2023-10-19T11:41:07;97480.34;;;17.08;63.12
54329;BME280;40710;51.120;13.136;2023-10-19T11:43:32;97495.63;;;16.49;64.85
54329;BME280;40710;51.120;13.136;2023-10-19T11:45:56;97492.59;;;16.19;65.71
54329;BME280;40710;51.120;13.136;2023-10-19T11:48:21;97484.34;;;16.38;65.75
54329;BME280;40710;51.120;13.136;2023-10-19T11:50:46;97479.69;;;16.73;64.46
54329;BME280;40710;51.120;13.136;2023-10-19T11:53:11;97476.19;;;17.06;63.45
54329;BME280;40710;51.120;13.136;2023-10-19T11:55:36;97479.16;;;17.19;63.30
54329;BME280;40710;51.120;13.136;2023-10-19T11:58:00;97484.34;;;17.04;63.83
54329;BME280;40710;51.120;13.136;2023-10-19T12:00:25;97481.84;;;16.61;64.88
54329;BME280;40710;51.120;13.136;2023-10-19T12:02:58;97478.41;;;16.94;64.58
54329;BME280;40710;51.120;13.136;2023-10-19T12:05:22;97473.28;;;17.48;63.17
54329;BME280;40710;51.120;13.136;2023-10-19T12:07:48;97468.56;;;17.98;61.34
54329;BME280;40710;51.120;13.136;2023-10-19T12:10:12;97465.78;;;17.91;62.24
54329;BME280;40710;51.120;13.136;2023-10-19T12:12:37;97465.81;;;17.35;63.01
54329;BME280;40710;51.120;13.136;2023-10-19T12:15:05;97447.22;;;18.14;61.84
54329;BME280;40710;51.120;13.136;2023-10-19T12:17:31;97442.16;;;18.81;59.70
54329;BME280;40710;51.120;13.136;2023-10-19T12:19:56;97450.75;;;18.30;60.93
54329;BME280;40710;51.120;13.136;2023-10-19T12:22:20;97448.50;;;18.19;61.87
54329;BME280;40710;51.120;13.136;2023-10-19T12:24:45;97458.22;;;17.72;63.58
54329;BME280;40710;51.120;13.136;2023-10-19T12:27:10;97455.28;;;18.21;62.25
54329;BME280;40710;51.120;13.136;2023-10-19T12:29:34;97451.66;;;18.22;62.25
54329;BME280;40710;51.120;13.136;2023-10-19T12:31:59;97444.00;;;18.19;62.08
54329;BME280;40710;51.120;13.136;2023-10-19T12:34:23;97446.44;;;18.52;62.09
54329;BME280;40710;51.120;13.136;2023-10-19T12:36:48;97435.97;;;18.50;61.07
54329;BME280;40710;51.120;13.136;2023-10-19T12:39:14;97442.88;;;18.37;61.97
54329;BME280;40710;51.120;13.136;2023-10-19T12:41:58;97434.78;;;18.53;61.13
54329;BME280;40710;51.120;13.136;2023-10-19T12:44:23;97435.50;;;18.47;61.25
54329;BME280;40710;51.120;13.136;2023-10-19T12:46:48;97428.44;;;18.54;61.62
54329;BME280;40710;51.120;13.136;2023-10-19T12:49:13;97429.03;;;18.64;61.55
54329;BME280;40710;51.120;13.136;2023-10-19T12:51:42;97432.13;;;18.53;61.31
54329;BME280;40710;51.120;13.136;2023-10-19T12:54:08;97432.97;;;18.68;61.64
54329;BME280;40710;51.120;13.136;2023-10-19T12:56:34;97430.13;;;18.55;62.13
54329;BME280;40710;51.120;13.136;2023-10-19T12:58:59;97426.38;;;18.64;61.42
54329;BME280;40710;51.120;13.136;2023-10-19T13:01:24;97407.63;;;19.25;59.98
54329;BME280;40710;51.120;13.136;2023-10-19T13:03:48;97417.00;;;18.68;60.78